Orbital elements of INTELSAT 902
| Launched | 29 August 2001 |
| Flight ended | – |
| Launch site | Europe's Spaceport, Kourou, French Guiana |
| Owner | International Telecommunications Satellite Organization (INTELSAT) |
| NORAD ID | 26900 |
| Alternative names |
IS-902 |
| Date fetched |
Epoch osculation |
Inc. [°] |
Ecc. | RA asc node [hr] |
Arg Peri. [°] |
Mean anom [°] |
Mean motion [rev/day] |
Abs. mag |
| Date fetched |
Epoch osculation |
Inc. [°] |
Ecc. | RA asc node [hr] |
Arg Peri. [°] |
Mean anom [°] |
Mean motion [rev/day] |
Abs. mag |
| 2026 May 09 17:57 | 2026 May 09 04:12:43 | 6.0212 | 0.00044 | 4.8166 | 331.4248 | 196.3995 | 1.00270 | – |
| 2026 May 08 17:57 | 2026 May 08 04:15:28 | 6.0186 | 0.00043 | 4.8174 | 330.3531 | 196.3995 | 1.00270 | – |
| 2026 May 07 17:58 | 2026 May 06 19:06:36 | 6.0151 | 0.00043 | 4.8185 | 328.7722 | 196.3995 | 1.00270 | – |
| 2026 May 06 17:57 | 2026 May 06 05:38:35 | 6.0136 | 0.00043 | 4.8188 | 328.2255 | 196.3995 | 1.00270 | – |
| 2026 May 05 17:57 | 2026 May 04 18:07:10 | 6.0096 | 0.00043 | 4.8201 | 326.1910 | 196.3995 | 1.00270 | – |
| 2026 May 04 17:57 | 2026 May 04 06:08:30 | 6.0083 | 0.00043 | 4.8205 | 325.5422 | 196.3995 | 1.00270 | – |
| 2026 May 03 17:57 | 2026 May 03 06:11:04 | 6.0057 | 0.00043 | 4.8213 | 324.4522 | 196.3995 | 1.00270 | – |
| 2026 May 02 17:57 | 2026 May 02 06:13:38 | 6.0032 | 0.00043 | 4.8221 | 323.4100 | 196.3995 | 1.00270 | – |
| 2026 May 01 17:56 | 2026 May 01 12:24:27 | 6.0013 | 0.00043 | 4.8226 | 322.6804 | 196.3995 | 1.00270 | – |
| 2026 Apr 30 17:56 | 2026 Apr 30 06:18:48 | 5.9980 | 0.00043 | 4.8236 | 321.4321 | 196.3995 | 1.00270 | – |
| 2026 Apr 29 17:57 | 2026 Apr 29 06:21:16 | 5.9954 | 0.00043 | 4.8244 | 320.4297 | 196.3995 | 1.00270 | – |
| 2026 Apr 28 17:56 | 2026 Apr 28 06:23:56 | 5.9928 | 0.00043 | 4.8252 | 319.3347 | 196.3995 | 1.00270 | – |
| 2026 Apr 27 17:58 | 2026 Apr 26 21:47:38 | 5.9893 | 0.00045 | 4.8263 | 320.0211 | 196.3995 | 1.00270 | – |
| 2026 Apr 26 17:58 | 2026 Apr 25 20:12:55 | 5.9865 | 0.00045 | 4.8272 | 319.1985 | 196.3995 | 1.00270 | – |
| 2026 Apr 25 17:58 | 2026 Apr 25 08:14:15 | 5.9853 | 0.00045 | 4.8276 | 318.7518 | 196.3995 | 1.00270 | – |
| 2026 Apr 24 17:59 | 2026 Apr 24 04:55:38 | 5.9824 | 0.00046 | 4.8285 | 317.4090 | 196.3995 | 1.00270 | – |
| 2026 Apr 23 17:57 | 2026 Apr 23 05:28:38 | 5.9800 | 0.00046 | 4.8293 | 316.3062 | 196.3995 | 1.00270 | – |
| 2026 Apr 22 17:57 | 2026 Apr 22 05:05:53 | 5.9774 | 0.00046 | 4.8301 | 315.2219 | 196.3995 | 1.00270 | – |
| 2026 Apr 21 17:57 | 2026 Apr 21 05:12:38 | 5.9751 | 0.00047 | 4.8309 | 316.0911 | 196.3995 | 1.00270 | – |
| 2026 Apr 20 17:57 | 2026 Apr 20 07:52:34 | 5.9729 | 0.00047 | 4.8316 | 315.2533 | 196.3995 | 1.00270 | – |
| 2026 Apr 19 17:58 | 2026 Apr 19 08:05:38 | 5.9704 | 0.00047 | 4.8324 | 314.0241 | 196.3995 | 1.00270 | – |
| 2026 Apr 18 17:56 | 2026 Apr 18 05:06:49 | 5.9677 | 0.00047 | 4.8333 | 312.5417 | 196.3995 | 1.00270 | – |
| 2026 Apr 16 17:57 | 2026 Apr 16 03:41:46 | 5.9625 | 0.00047 | 4.8350 | 309.9636 | 196.3995 | 1.00270 | – |
| 2026 Apr 14 17:57 | 2026 Apr 14 08:19:38 | 5.9579 | 0.00046 | 4.8364 | 307.7975 | 196.3995 | 1.00270 | – |
| 2026 Apr 13 17:57 | 2026 Apr 13 05:41:38 | 5.9551 | 0.00045 | 4.8373 | 308.1998 | 196.3995 | 1.00270 | – |
| 2026 Apr 12 17:57 | 2026 Apr 12 08:47:29 | 5.9528 | 0.00045 | 4.8380 | 307.1029 | 196.3995 | 1.00270 | – |